createdAt,value
2022-07-25T00:01:45.994Z,8.47
2022-07-25T00:04:14.787Z,9.40
2022-07-25T00:06:43.965Z,11.00
2022-07-25T00:09:12.257Z,8.53
2022-07-25T00:11:42.004Z,8.07
2022-07-25T00:14:10.553Z,8.97
2022-07-25T00:16:39.477Z,8.73
2022-07-25T00:19:07.943Z,8.27
2022-07-25T00:21:36.278Z,8.63
2022-07-25T00:24:04.973Z,9.17
2022-07-25T00:26:37.911Z,9.50
2022-07-25T00:29:09.519Z,8.50
2022-07-25T00:31:37.794Z,9.77
2022-07-25T00:34:06.401Z,8.40
2022-07-25T00:36:34.873Z,9.83
2022-07-25T00:39:03.069Z,9.23
2022-07-25T00:41:31.490Z,8.37
2022-07-25T00:43:59.736Z,8.73
2022-07-25T00:46:29.389Z,15.00
2022-07-25T00:48:57.737Z,8.37
2022-07-25T00:51:27.032Z,9.77
2022-07-25T00:53:55.597Z,8.83
2022-07-25T00:56:24.206Z,8.60
2022-07-25T00:58:52.365Z,9.10
2022-07-25T01:01:20.590Z,9.27
2022-07-25T01:03:50.207Z,9.80
2022-07-25T01:06:18.956Z,9.23
2022-07-25T01:08:48.146Z,9.30
2022-07-25T01:11:16.649Z,8.70
2022-07-25T01:13:44.882Z,9.20
2022-07-25T01:16:13.158Z,8.90
2022-07-25T01:18:41.405Z,9.83
2022-07-25T01:21:11.038Z,8.60
2022-07-25T01:23:39.210Z,9.00
2022-07-25T01:26:07.521Z,8.33
2022-07-25T01:28:35.962Z,9.70
2022-07-25T01:31:06.620Z,9.17
2022-07-25T01:33:34.856Z,8.50
2022-07-25T01:36:05.664Z,8.80
2022-07-25T01:38:35.288Z,8.47
2022-07-25T01:41:05.745Z,9.03
2022-07-25T01:43:33.976Z,8.33
2022-07-25T01:46:02.385Z,9.17
2022-07-25T01:48:30.616Z,8.50
2022-07-25T01:50:58.833Z,9.37
2022-07-25T01:53:28.048Z,9.50
2022-07-25T01:55:57.570Z,9.77
2022-07-25T01:58:25.754Z,8.90
2022-07-25T02:00:53.926Z,9.40
2022-07-25T02:03:31.067Z,8.23
2022-07-25T02:06:00.222Z,9.30
2022-07-25T02:08:28.691Z,8.93
2022-07-25T02:11:01.465Z,9.67
2022-07-25T02:13:29.733Z,8.93
2022-07-25T02:15:57.957Z,9.93
2022-07-25T02:18:26.404Z,9.40
2022-07-25T02:20:54.635Z,7.80
2022-07-25T02:23:22.779Z,10.47
2022-07-25T02:25:50.990Z,8.67
2022-07-25T02:28:20.507Z,9.00
2022-07-25T02:30:48.788Z,8.67
2022-07-25T02:33:18.117Z,10.00
2022-07-25T02:35:46.344Z,8.90
2022-07-25T02:38:19.581Z,9.73
2022-07-25T02:40:48.023Z,8.23
2022-07-25T02:43:16.316Z,8.80
2022-07-25T02:45:46.168Z,10.03
2022-07-25T02:48:14.872Z,9.93
2022-07-25T02:50:43.250Z,7.70
2022-07-25T02:53:11.468Z,8.87
2022-07-25T02:55:39.689Z,8.27
2022-07-25T02:58:07.897Z,8.47
2022-07-25T03:00:36.364Z,9.00
2022-07-25T03:03:06.082Z,9.30
2022-07-25T03:05:34.406Z,9.60
2022-07-25T03:08:02.557Z,8.67
2022-07-25T03:10:31.309Z,9.37
2022-07-25T03:12:59.534Z,8.67
2022-07-25T03:15:27.744Z,9.03
2022-07-25T03:17:55.970Z,9.50
2022-07-25T03:20:25.888Z,9.57
2022-07-25T03:22:54.140Z,9.20
2022-07-25T03:25:22.278Z,10.00
2022-07-25T03:27:50.998Z,8.53
2022-07-25T03:30:19.432Z,8.50
2022-07-25T03:32:47.807Z,8.30
2022-07-25T03:35:16.579Z,10.30
2022-07-25T03:37:46.915Z,8.37
2022-07-25T03:40:16.112Z,8.90
2022-07-25T03:42:44.918Z,9.20
2022-07-25T03:45:13.138Z,8.17
2022-07-25T03:47:41.431Z,8.93
2022-07-25T03:50:14.231Z,8.63
2022-07-25T03:52:42.653Z,8.80
2022-07-25T03:55:12.565Z,9.33
2022-07-25T03:57:40.867Z,9.17
2022-07-25T04:00:10.991Z,9.27
2022-07-25T04:02:39.580Z,9.13
2022-07-25T04:05:08.606Z,8.70
2022-07-25T04:07:37.523Z,8.80
2022-07-25T04:10:07.891Z,8.70
2022-07-25T04:12:39.015Z,9.13
2022-07-25T04:15:08.240Z,8.30
2022-07-25T04:17:38.868Z,10.07
2022-07-25T04:20:08.943Z,9.07
2022-07-25T04:22:37.136Z,10.37
2022-07-25T04:25:06.468Z,10.37
2022-07-25T04:27:34.655Z,9.40
2022-07-25T04:30:04.559Z,8.70
2022-07-25T04:32:32.736Z,8.47
2022-07-25T04:35:00.925Z,8.63
2022-07-25T04:37:29.152Z,9.33
2022-07-25T04:39:57.359Z,9.27
2022-07-25T04:42:25.552Z,8.40
2022-07-25T04:44:54.278Z,10.30
2022-07-25T04:47:23.786Z,9.07
2022-07-25T04:49:51.982Z,9.57
2022-07-25T04:52:20.203Z,7.77
2022-07-25T04:54:48.572Z,8.70
2022-07-25T04:57:16.804Z,8.73
2022-07-25T04:59:45.490Z,10.37
2022-07-25T05:02:13.785Z,9.47
2022-07-25T05:04:45.288Z,9.70
2022-07-25T05:07:13.883Z,9.80
2022-07-25T05:09:42.122Z,10.47
2022-07-25T05:12:11.093Z,10.00
2022-07-25T05:14:39.692Z,9.27
2022-07-25T05:17:07.888Z,10.13
2022-07-25T05:19:36.203Z,9.03
2022-07-25T05:22:05.820Z,9.37
2022-07-25T05:24:35.178Z,10.47
2022-07-25T05:27:04.107Z,9.40
2022-07-25T05:29:32.847Z,9.87
2022-07-25T05:32:01.235Z,9.60
2022-07-25T05:34:29.505Z,12.83
2022-07-25T05:36:57.692Z,9.93
2022-07-25T05:39:27.324Z,10.53
2022-07-25T05:41:56.469Z,10.50
2022-07-25T05:44:24.654Z,10.93
2022-07-25T05:46:52.835Z,10.83
2022-07-25T05:49:21.057Z,11.17
2022-07-25T05:51:49.263Z,9.93
2022-07-25T05:54:17.429Z,10.20
2022-07-25T05:56:46.967Z,10.77
2022-07-25T05:59:15.117Z,9.73
2022-07-25T06:01:43.491Z,9.30
2022-07-25T06:04:11.816Z,9.83
2022-07-25T06:06:40.031Z,10.33
2022-07-25T06:09:08.611Z,10.50
2022-07-25T06:11:48.669Z,13.10
2022-07-25T06:14:24.350Z,12.37
2022-07-25T06:16:53.275Z,10.30
2022-07-25T06:19:21.499Z,12.57
2022-07-25T06:21:49.774Z,11.13
2022-07-25T06:24:17.942Z,10.43
2022-07-25T06:26:46.176Z,12.90
2022-07-25T06:29:15.505Z,11.07
2022-07-25T06:31:46.390Z,13.40
2022-07-25T06:34:15.601Z,11.80
2022-07-25T06:36:43.841Z,10.90
2022-07-25T06:39:12.462Z,11.47
2022-07-25T06:41:40.701Z,11.63
2022-07-25T06:44:09.277Z,12.80
2022-07-25T06:46:37.860Z,13.03
2022-07-25T06:49:07.553Z,11.87
2022-07-25T06:51:38.786Z,13.17
2022-07-25T06:54:07.462Z,12.10
2022-07-25T06:56:35.764Z,13.80
2022-07-25T06:59:03.965Z,15.93
2022-07-25T07:01:32.260Z,12.40
2022-07-25T07:04:00.474Z,13.70
2022-07-25T07:06:30.097Z,13.20
2022-07-25T07:08:58.391Z,12.47
2022-07-25T07:11:26.614Z,12.73
2022-07-25T07:13:54.801Z,12.60
2022-07-25T07:16:23.083Z,13.17
2022-07-25T07:18:51.337Z,12.37
2022-07-25T07:21:21.431Z,11.63
2022-07-25T07:23:53.383Z,13.17
2022-07-25T07:26:22.118Z,15.40
2022-07-25T07:28:50.375Z,12.73
2022-07-25T07:31:19.065Z,12.83
2022-07-25T07:33:47.559Z,12.93
2022-07-25T07:36:15.737Z,12.40
2022-07-25T07:38:44.552Z,12.00
2022-07-25T07:41:14.320Z,13.20
2022-07-25T07:43:42.646Z,12.43
2022-07-25T07:46:10.997Z,12.00
2022-07-25T07:48:40.039Z,12.87
2022-07-25T07:51:08.296Z,11.87
2022-07-25T07:53:54.251Z,12.30
2022-07-25T07:56:24.265Z,11.43
2022-07-25T07:58:52.480Z,11.67
2022-07-25T08:01:20.935Z,14.40
2022-07-25T08:03:49.166Z,12.80
2022-07-25T08:06:17.337Z,13.70
2022-07-25T08:08:45.526Z,11.90
2022-07-25T08:11:13.674Z,12.60
2022-07-25T08:13:43.452Z,13.60
2022-07-25T08:16:13.772Z,12.30
2022-07-25T08:18:42.033Z,12.40
2022-07-25T08:21:10.814Z,12.63
2022-07-25T08:23:39.683Z,11.40
2022-07-25T08:26:08.097Z,11.50
2022-07-25T08:28:36.279Z,13.27
2022-07-25T08:31:08.007Z,12.53
2022-07-25T08:33:36.286Z,12.23
2022-07-25T08:36:07.129Z,12.57
2022-07-25T08:38:35.789Z,11.93
2022-07-25T08:41:08.706Z,12.07
2022-07-25T08:43:37.822Z,12.30
2022-07-25T08:46:10.815Z,13.53
2022-07-25T08:48:40.411Z,13.30
2022-07-25T08:51:09.503Z,12.43
2022-07-25T08:53:37.992Z,11.63
2022-07-25T08:56:15.945Z,12.87
2022-07-25T08:58:47.238Z,12.23
2022-07-25T09:01:17.153Z,13.30
2022-07-25T09:03:45.701Z,13.40
2022-07-25T09:06:21.340Z,13.37
2022-07-25T09:08:53.902Z,13.47
2022-07-25T09:11:30.459Z,12.97
2022-07-25T09:14:05.291Z,13.40
2022-07-25T09:16:36.636Z,13.10
2022-07-25T09:19:11.419Z,13.10
2022-07-25T09:21:40.931Z,13.07
2022-07-25T09:24:15.954Z,13.00
2022-07-25T09:26:45.727Z,13.10
2022-07-25T09:29:22.133Z,13.77
2022-07-25T09:31:52.932Z,13.30
2022-07-25T09:34:34.518Z,14.07
2022-07-25T09:37:03.263Z,12.73
2022-07-25T09:39:37.900Z,14.00
2022-07-25T09:42:22.940Z,13.63
2022-07-25T09:45:03.152Z,15.90
2022-07-25T09:47:33.632Z,13.40
2022-07-25T09:50:02.042Z,13.37
2022-07-25T09:52:30.198Z,12.00
2022-07-25T09:54:58.475Z,12.80
2022-07-25T09:57:26.774Z,13.20
2022-07-25T09:59:56.084Z,12.23
2022-07-25T10:02:41.779Z,11.73
2022-07-25T10:05:15.258Z,12.63
2022-07-25T10:07:47.647Z,12.40
2022-07-25T10:10:27.069Z,12.20
2022-07-25T10:13:10.557Z,13.37
2022-07-25T10:15:47.884Z,11.97
2022-07-25T10:18:18.568Z,12.67
2022-07-25T10:20:47.980Z,12.60
2022-07-25T10:23:24.487Z,11.80
2022-07-25T10:26:05.727Z,11.77
2022-07-25T10:28:42.047Z,12.13
2022-07-25T10:31:18.526Z,11.60
2022-07-25T10:33:55.088Z,12.63
2022-07-25T10:36:24.372Z,11.20
2022-07-25T10:38:54.069Z,10.00
2022-07-25T10:41:27.340Z,11.33
2022-07-25T10:43:58.831Z,11.40
2022-07-25T10:46:30.927Z,10.87
2022-07-25T10:49:02.547Z,11.40
2022-07-25T10:51:38.209Z,10.27
2022-07-25T10:54:16.838Z,11.27
2022-07-25T10:56:56.574Z,12.27
2022-07-25T10:59:33.502Z,11.43
2022-07-25T11:02:02.244Z,12.33
2022-07-25T11:04:32.103Z,12.87
2022-07-25T11:07:09.746Z,11.47
2022-07-25T11:09:38.410Z,11.60
2022-07-25T11:12:07.542Z,12.60
2022-07-25T11:14:37.806Z,13.40
2022-07-25T11:17:15.315Z,9.97
2022-07-25T11:19:53.846Z,19.17
2022-07-25T11:22:22.099Z,16.63
2022-07-25T11:24:50.288Z,11.60
2022-07-25T11:27:23.812Z,11.37
2022-07-25T11:29:52.175Z,13.30
2022-07-25T11:32:21.145Z,10.90
2022-07-25T11:34:53.313Z,10.57
2022-07-25T11:37:22.464Z,12.97
2022-07-25T11:39:53.052Z,10.33
2022-07-25T11:42:22.513Z,11.50
2022-07-25T11:44:52.682Z,9.90
2022-07-25T11:47:26.193Z,10.67
2022-07-25T11:49:57.764Z,11.67
2022-07-25T11:52:27.828Z,10.73
2022-07-25T11:54:57.228Z,10.47
2022-07-25T11:57:26.752Z,11.07
2022-07-25T11:59:56.110Z,11.03
2022-07-25T12:02:31.195Z,10.70
2022-07-25T12:05:02.627Z,10.87
2022-07-25T12:07:42.027Z,10.70
2022-07-25T12:10:12.683Z,10.07
2022-07-25T12:12:49.859Z,10.60
2022-07-25T12:15:21.104Z,10.77
2022-07-25T12:17:49.902Z,11.53
2022-07-25T12:20:21.494Z,9.67
2022-07-25T12:22:50.845Z,11.57
2022-07-25T12:25:19.503Z,12.13
2022-07-25T12:27:47.813Z,9.87
2022-07-25T12:30:16.628Z,10.63
2022-07-25T12:32:45.498Z,10.80
2022-07-25T12:35:15.431Z,10.87
2022-07-25T12:37:45.673Z,9.40
2022-07-25T12:40:14.944Z,18.50
2022-07-25T12:42:43.509Z,9.67
2022-07-25T12:45:12.759Z,9.50
2022-07-25T12:47:41.213Z,10.50
2022-07-25T12:50:10.118Z,9.50
2022-07-25T12:52:38.994Z,11.43
2022-07-25T12:55:11.101Z,11.53
2022-07-25T12:57:39.606Z,13.70
2022-07-25T13:00:11.181Z,10.70
2022-07-25T13:02:39.758Z,11.13
2022-07-25T13:05:09.008Z,11.43
2022-07-25T13:07:37.416Z,12.37
2022-07-25T13:10:06.778Z,11.57
2022-07-25T13:12:36.555Z,12.33
2022-07-25T13:15:05.462Z,11.20
2022-07-25T13:17:34.065Z,12.17
2022-07-25T13:20:02.952Z,15.73
2022-07-25T13:22:31.219Z,13.80
2022-07-25T13:24:59.520Z,14.00
2022-07-25T13:27:27.793Z,12.17
2022-07-25T13:29:57.963Z,14.30
2022-07-25T13:32:28.396Z,13.30
2022-07-25T13:34:56.650Z,16.90
2022-07-25T13:37:24.858Z,13.30
2022-07-25T13:39:53.022Z,13.77
2022-07-25T13:42:21.260Z,20.50
2022-07-25T13:44:49.545Z,20.93
2022-07-25T13:47:19.179Z,15.33
2022-07-25T13:49:47.451Z,12.10
2022-07-25T13:52:15.819Z,12.53
2022-07-25T13:54:44.129Z,12.57
2022-07-25T13:57:12.349Z,12.20
2022-07-25T13:59:40.792Z,13.70
2022-07-25T14:02:09.257Z,13.80
2022-07-25T14:04:39.976Z,12.90
2022-07-25T14:07:08.316Z,12.57
2022-07-25T14:09:36.613Z,12.40
2022-07-25T14:12:05.169Z,11.83
2022-07-25T14:14:33.396Z,11.90
2022-07-25T14:17:01.679Z,12.27
2022-07-25T14:19:29.872Z,11.50
2022-07-25T14:21:59.501Z,12.83
2022-07-25T14:24:27.778Z,11.57
2022-07-25T14:26:56.205Z,11.10
2022-07-25T14:29:30.117Z,12.83
2022-07-25T14:31:58.744Z,11.67
2022-07-25T14:34:26.994Z,11.53
2022-07-25T14:36:55.176Z,11.00
2022-07-25T14:39:24.751Z,12.43
2022-07-25T14:41:53.343Z,10.70
2022-07-25T14:44:21.930Z,10.63
2022-07-25T14:46:51.285Z,10.80
2022-07-25T14:49:19.910Z,10.20
2022-07-25T14:51:48.897Z,10.10
2022-07-25T14:54:17.219Z,9.13
2022-07-25T14:56:49.153Z,9.43
2022-07-25T14:59:17.708Z,11.03
2022-07-25T15:01:46.409Z,9.83
2022-07-25T15:04:14.749Z,8.80
2022-07-25T15:06:42.951Z,9.53
2022-07-25T15:09:11.507Z,19.93
2022-07-25T15:11:39.782Z,9.70
2022-07-25T15:14:09.581Z,9.60
2022-07-25T15:16:39.538Z,9.10
2022-07-25T15:19:16.982Z,8.50
2022-07-25T15:21:45.932Z,9.80
2022-07-25T15:24:14.618Z,9.20
2022-07-25T15:26:43.114Z,8.23
2022-07-25T15:29:15.225Z,8.53
2022-07-25T15:31:43.509Z,8.40
2022-07-25T15:34:11.837Z,8.50
2022-07-25T15:36:40.093Z,8.13
2022-07-25T15:39:09.155Z,10.20
2022-07-25T15:41:37.784Z,8.90
2022-07-25T15:44:06.779Z,9.73
2022-07-25T15:46:36.603Z,8.70
2022-07-25T15:49:05.297Z,9.33
2022-07-25T15:51:33.986Z,9.47
2022-07-25T15:54:02.235Z,9.43
2022-07-25T15:56:30.636Z,9.33
2022-07-25T15:58:58.960Z,10.23
2022-07-25T16:01:27.321Z,10.00
2022-07-25T16:03:59.843Z,10.93
2022-07-25T16:06:28.632Z,9.00
2022-07-25T16:08:57.348Z,9.23
2022-07-25T16:11:26.036Z,10.60
2022-07-25T16:13:54.785Z,10.10
2022-07-25T16:16:23.354Z,10.20
2022-07-25T16:18:52.075Z,9.47
2022-07-25T16:21:21.976Z,10.97
2022-07-25T16:23:50.254Z,9.70
2022-07-25T16:26:18.669Z,11.17
2022-07-25T16:28:48.993Z,10.37
2022-07-25T16:31:17.326Z,10.30
2022-07-25T16:33:45.649Z,9.97
2022-07-25T16:36:13.867Z,9.73
2022-07-25T16:38:45.147Z,10.40
2022-07-25T16:41:13.348Z,10.40
2022-07-25T16:43:41.694Z,11.23
2022-07-25T16:46:10.125Z,11.10
2022-07-25T16:48:38.796Z,9.77
2022-07-25T16:51:09.847Z,10.00
2022-07-25T16:53:38.174Z,10.43
2022-07-25T16:56:11.280Z,10.23
2022-07-25T16:58:39.760Z,11.93
2022-07-25T17:01:08.160Z,10.57
2022-07-25T17:03:36.484Z,10.40
2022-07-25T17:06:07.123Z,10.10
2022-07-25T17:08:35.834Z,10.17
2022-07-25T17:11:06.781Z,11.30
2022-07-25T17:13:36.477Z,10.00
2022-07-25T17:16:08.558Z,11.07
2022-07-25T17:18:37.631Z,11.37
2022-07-25T17:21:09.445Z,10.90
2022-07-25T17:23:37.896Z,10.30
2022-07-25T17:26:09.198Z,10.93
2022-07-25T17:28:38.933Z,10.90
2022-07-25T17:31:09.965Z,10.20
2022-07-25T17:33:38.189Z,12.83
2022-07-25T17:36:10.169Z,11.17
2022-07-25T17:38:39.153Z,11.07
2022-07-25T17:41:07.721Z,11.73
2022-07-25T17:43:36.256Z,11.13
2022-07-25T17:46:10.976Z,9.53
2022-07-25T17:48:39.475Z,12.17
2022-07-25T17:51:08.023Z,16.63
2022-07-25T17:53:36.198Z,15.00
2022-07-25T17:56:08.384Z,13.97
2022-07-25T17:58:37.727Z,11.87
2022-07-25T18:01:10.817Z,11.43
2022-07-25T18:03:39.175Z,12.33
2022-07-25T18:06:10.506Z,11.40
2022-07-25T18:08:38.791Z,11.57
2022-07-25T18:11:09.143Z,11.90
2022-07-25T18:13:37.882Z,9.97
2022-07-25T18:16:11.518Z,12.30
2022-07-25T18:18:39.863Z,11.37
2022-07-25T18:21:08.155Z,11.60
2022-07-25T18:23:36.361Z,11.43
2022-07-25T18:26:07.803Z,11.57
2022-07-25T18:28:37.335Z,11.47
2022-07-25T18:31:10.392Z,11.00
2022-07-25T18:33:38.722Z,18.47
2022-07-25T18:36:10.091Z,10.17
2022-07-25T18:38:38.485Z,10.70
2022-07-25T18:43:57.242Z,10.27
2022-07-25T18:46:26.955Z,10.83
2022-07-25T18:48:55.570Z,11.00
2022-07-25T18:51:23.884Z,11.13
2022-07-25T18:53:52.092Z,11.20
2022-07-25T18:56:20.428Z,10.27
2022-07-25T18:58:48.731Z,11.17
2022-07-25T19:01:17.275Z,10.73
2022-07-25T19:03:47.014Z,10.27
2022-07-25T19:06:15.359Z,10.83
2022-07-25T19:08:46.121Z,10.60
2022-07-25T19:11:14.972Z,10.60
2022-07-25T19:13:51.138Z,10.47
2022-07-25T19:16:20.742Z,10.37
2022-07-25T19:18:50.730Z,10.30
2022-07-25T19:21:19.127Z,10.57
2022-07-25T19:23:50.992Z,9.53
2022-07-25T19:26:20.448Z,10.10
2022-07-25T19:28:48.941Z,10.43
2022-07-25T19:31:17.543Z,10.13
2022-07-25T19:33:49.522Z,10.63
2022-07-25T19:36:19.805Z,10.37
2022-07-25T19:38:48.146Z,10.97
2022-07-25T19:41:16.602Z,9.50
2022-07-25T19:43:44.881Z,10.33
2022-07-25T19:46:13.177Z,10.23
2022-07-25T19:48:41.636Z,10.33
2022-07-25T19:51:09.993Z,9.83
2022-07-25T19:53:39.667Z,10.17
2022-07-25T19:56:09.183Z,9.60
2022-07-25T19:58:39.065Z,9.80
2022-07-25T20:01:11.821Z,9.07
2022-07-25T20:03:40.792Z,8.93
2022-07-25T20:06:09.194Z,8.90
2022-07-25T20:08:40.213Z,8.80
2022-07-25T20:11:08.724Z,9.50
2022-07-25T20:13:37.049Z,8.27
2022-07-25T20:16:08.648Z,7.80
2022-07-25T20:18:36.957Z,7.93
2022-07-25T20:21:08.441Z,7.30
2022-07-25T20:23:36.731Z,8.90
2022-07-25T20:26:08.970Z,8.60
2022-07-25T20:28:38.080Z,8.27
2022-07-25T20:31:09.334Z,6.87
2022-07-25T20:33:38.151Z,7.73
2022-07-25T20:36:09.642Z,7.60
2022-07-25T20:38:38.046Z,6.23
2022-07-25T20:41:11.645Z,7.20
2022-07-25T20:43:40.692Z,7.50
2022-07-25T20:46:09.706Z,8.40
2022-07-25T20:48:38.141Z,8.10
2022-07-25T20:51:09.567Z,6.57
2022-07-25T20:53:37.869Z,6.70
2022-07-25T20:56:10.723Z,5.77
2022-07-25T20:58:39.154Z,6.80
2022-07-25T21:01:10.220Z,5.40
2022-07-25T21:03:38.643Z,6.90
2022-07-25T21:06:07.337Z,7.67
2022-07-25T21:08:35.867Z,6.67
2022-07-25T21:11:06.922Z,5.00
2022-07-25T21:13:36.734Z,6.63
2022-07-25T21:16:08.279Z,5.13
2022-07-25T21:18:36.501Z,5.57
2022-07-25T21:21:12.126Z,7.83
2022-07-25T21:23:41.844Z,5.90
2022-07-25T21:26:10.576Z,5.00
2022-07-25T21:28:41.502Z,6.37
2022-07-25T21:31:09.703Z,5.00
2022-07-25T21:33:37.921Z,4.37
2022-07-25T21:36:10.171Z,4.60
2022-07-25T21:38:38.384Z,5.63
2022-07-25T21:41:09.431Z,4.90
2022-07-25T21:43:37.721Z,4.60
2022-07-25T21:46:10.485Z,5.50
2022-07-25T21:48:56.587Z,4.17
2022-07-25T21:51:25.031Z,4.37
2022-07-25T21:54:01.666Z,4.80
2022-07-25T21:56:30.835Z,6.97
2022-07-25T21:58:59.324Z,4.40
2022-07-25T22:01:29.236Z,4.47
2022-07-25T22:03:57.655Z,5.27
2022-07-25T22:06:25.927Z,4.70
2022-07-25T22:08:56.385Z,5.20
2022-07-25T22:11:42.683Z,4.40
2022-07-25T22:14:13.173Z,3.97
2022-07-25T22:16:42.825Z,4.87
2022-07-25T22:19:11.466Z,8.03
2022-07-25T22:21:41.218Z,4.27
2022-07-25T22:24:10.108Z,4.30
2022-07-25T22:26:38.397Z,4.40
2022-07-25T22:29:06.932Z,5.37
2022-07-25T22:31:35.428Z,3.73
2022-07-25T22:34:05.001Z,3.97
2022-07-25T22:36:33.235Z,3.83
2022-07-25T22:39:01.451Z,4.50
2022-07-25T22:41:29.620Z,4.00
2022-07-25T22:43:59.882Z,5.10
2022-07-25T22:46:30.340Z,5.10
2022-07-25T22:48:59.571Z,3.50
2022-07-25T22:51:30.092Z,3.57
2022-07-25T22:53:59.104Z,4.97
2022-07-25T22:56:27.673Z,3.40
2022-07-25T22:58:56.108Z,3.53
2022-07-25T23:01:24.672Z,3.10
2022-07-25T23:03:52.896Z,5.47
2022-07-25T23:06:21.837Z,3.37
2022-07-25T23:08:51.457Z,3.23
2022-07-25T23:11:19.657Z,3.17
2022-07-25T23:13:47.819Z,5.00
2022-07-25T23:16:16.095Z,3.93
2022-07-25T23:18:44.471Z,3.00
2022-07-25T23:21:12.774Z,3.47
2022-07-25T23:23:40.994Z,3.50
2022-07-25T23:26:10.795Z,3.87
2022-07-25T23:28:39.046Z,3.80
2022-07-25T23:31:10.142Z,3.27
2022-07-25T23:33:38.374Z,3.83
2022-07-25T23:36:09.909Z,2.97
2022-07-25T23:38:39.231Z,3.47
2022-07-25T23:41:11.631Z,3.90
2022-07-25T23:43:56.300Z,2.47
2022-07-25T23:46:29.417Z,4.47
2022-07-25T23:48:59.811Z,3.03
2022-07-25T23:51:28.130Z,3.17
2022-07-25T23:53:56.361Z,3.67
2022-07-25T23:56:26.095Z,5.13
2022-07-25T23:58:54.329Z,3.50
